Time;durP1;ratioP1;P1;durP2;ratioP2;P2;SDS_P1;SDS_P2;PMS_P1;PMS_P2;Temp;Humidity;BMP_temperature;BMP_pressure;BME280_temperature;BME280_humidity;BME280_pressure;Samples;Min_cycle;Max_cycle;Signal;HPM_P1;HPM_P2
2023/08/11 00:00:41;;;;;;;37.00;34.47;;;;;;;;;;4866937;29;20037;-96
2023/08/11 00:03:08;;;;;;;38.28;36.03;;;;;;;;;;4865931;29;20470;-96
2023/08/11 00:08:53;;;;;;;34.90;32.77;;;;;;;;;;4883120;29;20517;-95
2023/08/11 00:11:23;;;;;;;36.10;34.05;;;;;;;;;;4870557;29;20270;-96
2023/08/11 00:13:49;;;;;;;40.28;37.88;;;;;;;;;;4859723;29;20501;-95
2023/08/11 00:16:16;;;;;;;34.70;32.70;;;;;;;;;;4850952;29;20034;-95
2023/08/11 00:18:42;;;;;;;33.45;31.55;;;;;;;;;;4863352;29;20033;-96
2023/08/11 00:21:08;;;;;;;36.03;33.75;;;;;;;;;;4869605;29;20037;-96
2023/08/11 00:23:39;;;;;;;39.90;37.30;;;;;;;;;;4872477;29;20032;-95
2023/08/11 00:26:06;;;;;;;36.45;34.28;;;;;;;;;;4871391;29;20043;-95
2023/08/11 00:28:32;;;;;;;36.10;33.72;;;;;;;;;;4867218;29;20045;-94
2023/08/11 00:30:58;;;;;;;35.20;32.88;;;;;;;;;;4867171;29;20056;-96
2023/08/11 00:33:24;;;;;;;34.78;32.35;;;;;;;;;;4857121;29;20399;-94
2023/08/11 00:35:50;;;;;;;36.67;34.50;;;;;;;;;;4848482;29;20093;-95
2023/08/11 00:38:17;;;;;;;33.75;31.65;;;;;;;;;;4849815;29;20025;-95
2023/08/11 00:40:49;;;;;;;36.88;34.78;;;;;;;;;;4850566;29;20113;-96
2023/08/11 00:43:15;;;;;;;40.03;37.55;;;;;;;;;;4849348;29;20029;-95
2023/08/11 00:45:45;;;;;;;35.88;33.72;;;;;;;;;;4853279;29;20032;-95
2023/08/11 00:48:17;;;;;;;42.92;40.47;;;;;;;;;;4869666;29;20486;-95
2023/08/11 00:50:43;;;;;;;33.17;31.13;;;;;;;;;;4866108;29;20045;-95
2023/08/11 00:53:12;;;;;;;35.83;33.78;;;;;;;;;;4851393;29;20074;-94
2023/08/11 00:55:38;;;;;;;38.45;36.13;;;;;;;;;;4858348;29;20033;-94
2023/08/11 00:58:05;;;;;;;36.17;34.00;;;;;;;;;;4866717;29;20029;-94
2023/08/11 01:00:32;;;;;;;39.20;37.00;;;;;;;;;;4866129;29;20029;-95
2023/08/11 01:02:58;;;;;;;35.03;32.88;;;;;;;;;;4865563;29;20029;-94
2023/08/11 01:05:26;;;;;;;37.83;35.45;;;;;;;;;;4867640;29;20029;-95
2023/08/11 01:08:12;;;;;;;36.20;33.97;;;;;;;;;;4856252;29;20030;-96
2023/08/11 01:10:45;;;;;;;38.60;36.22;;;;;;;;;;4848762;29;20132;-96
2023/08/11 01:13:18;;;;;;;31.88;29.88;;;;;;;;;;4847445;29;20398;-95
2023/08/11 01:15:58;;;;;;;34.65;32.30;;;;;;;;;;4862102;29;20029;-95
2023/08/11 01:18:25;;;;;;;36.05;33.70;;;;;;;;;;4866396;29;20132;-95
2023/08/11 01:21:12;;;;;;;33.53;31.42;;;;;;;;;;4865114;29;20053;-95
2023/08/11 01:23:40;;;;;;;34.72;32.58;;;;;;;;;;4865042;29;20099;-96
2023/08/11 01:26:06;;;;;;;36.30;33.85;;;;;;;;;;4866122;29;20037;-94
2023/08/11 01:28:36;;;;;;;36.95;34.63;;;;;;;;;;4866540;29;20389;-94
2023/08/11 01:31:03;;;;;;;35.47;33.17;;;;;;;;;;4866177;29;20037;-94
2023/08/11 01:33:29;;;;;;;38.10;35.50;;;;;;;;;;4866119;29;20487;-95
2023/08/11 01:35:55;;;;;;;40.85;37.88;;;;;;;;;;4866464;29;20115;-93
2023/08/11 01:38:24;;;;;;;38.13;35.63;;;;;;;;;;4856133;29;20082;-94
2023/08/11 01:40:50;;;;;;;39.63;36.90;;;;;;;;;;4847209;29;20037;-94
2023/08/11 01:43:20;;;;;;;39.72;37.00;;;;;;;;;;4846124;29;20029;-96
2023/08/11 01:45:49;;;;;;;40.63;37.85;;;;;;;;;;4846146;29;20041;-95
2023/08/11 01:48:17;;;;;;;42.03;38.97;;;;;;;;;;4862267;29;20117;-94
2023/08/11 01:50:44;;;;;;;39.75;37.05;;;;;;;;;;4847255;29;20494;-95
2023/08/11 01:53:14;;;;;;;39.70;36.85;;;;;;;;;;4847020;29;20499;-96
2023/08/11 01:55:44;;;;;;;39.08;36.20;;;;;;;;;;4847483;29;20037;-96
2023/08/11 01:58:10;;;;;;;39.42;36.63;;;;;;;;;;4846910;29;20052;-95
2023/08/11 02:00:46;;;;;;;38.88;36.17;;;;;;;;;;4847800;29;20036;-96
2023/08/11 02:03:18;;;;;;;37.42;34.92;;;;;;;;;;4846645;29;20029;-95
2023/08/11 02:05:44;;;;;;;37.30;34.78;;;;;;;;;;4846198;29;20032;-96
2023/08/11 02:08:11;;;;;;;37.80;35.15;;;;;;;;;;4864264;29;20040;-94
2023/08/11 02:10:37;;;;;;;40.40;37.70;;;;;;;;;;4863134;29;20075;-95
2023/08/11 02:13:05;;;;;;;38.90;36.17;;;;;;;;;;4849281;29;20025;-95
2023/08/11 02:15:31;;;;;;;36.90;34.45;;;;;;;;;;4847298;29;20038;-95
2023/08/11 02:17:57;;;;;;;37.67;35.17;;;;;;;;;;4846563;29;20112;-95
2023/08/11 02:20:24;;;;;;;36.75;34.25;;;;;;;;;;4845832;29;20061;-96
2023/08/11 02:22:52;;;;;;;35.80;33.30;;;;;;;;;;4845646;29;20522;-96
2023/08/11 02:25:19;;;;;;;35.13;32.80;;;;;;;;;;4846455;29;20037;-96
2023/08/11 02:27:47;;;;;;;35.70;32.80;;;;;;;;;;4846353;29;20036;-95
2023/08/11 02:30:14;;;;;;;37.80;35.30;;;;;;;;;;4865156;29;20101;-94
2023/08/11 02:32:41;;;;;;;34.30;31.95;;;;;;;;;;4866088;29;20420;-93
2023/08/11 02:35:07;;;;;;;37.88;34.97;;;;;;;;;;4864377;29;20115;-95
2023/08/11 02:37:43;;;;;;;35.42;33.10;;;;;;;;;;4864517;29;20054;-96
2023/08/11 02:46:16;;;;;;;34.05;31.60;;;;;;;;;;4889054;29;20442;-96
2023/08/11 02:48:42;;;;;;;35.67;33.33;;;;;;;;;;4869603;29;20403;-95
2023/08/11 02:51:15;;;;;;;36.20;33.78;;;;;;;;;;4864089;29;20028;-96
2023/08/11 02:53:48;;;;;;;35.10;32.47;;;;;;;;;;4850308;29;20499;-94
2023/08/11 02:56:17;;;;;;;36.60;33.88;;;;;;;;;;4852480;29;20082;-96
2023/08/11 02:58:47;;;;;;;37.42;34.40;;;;;;;;;;4869735;29;20056;-96
2023/08/11 03:01:14;;;;;;;39.72;31.80;;;;;;;;;;4868411;29;20081;-94
2023/08/11 03:03:42;;;;;;;35.45;33.10;;;;;;;;;;4867450;29;20044;-94
2023/08/11 03:06:12;;;;;;;35.50;33.13;;;;;;;;;;4867984;29;20116;-96
2023/08/11 03:08:39;;;;;;;35.83;33.38;;;;;;;;;;4868857;29;20025;-95
2023/08/11 03:11:08;;;;;;;37.40;34.50;;;;;;;;;;4868209;29;20061;-96
2023/08/11 03:13:37;;;;;;;36.42;34.03;;;;;;;;;;4852122;29;20042;-96
2023/08/11 03:16:04;;;;;;;37.45;34.90;;;;;;;;;;4853092;29;20034;-95
2023/08/11 03:18:30;;;;;;;39.20;36.65;;;;;;;;;;4850791;29;20074;-95
2023/08/11 03:20:56;;;;;;;36.67;33.90;;;;;;;;;;4858735;29;20056;-93
2023/08/11 03:23:22;;;;;;;38.90;36.08;;;;;;;;;;4865416;29;20026;-94
2023/08/11 03:26:09;;;;;;;36.40;33.95;;;;;;;;;;4854985;29;20033;-95
2023/08/11 03:28:44;;;;;;;38.38;35.85;;;;;;;;;;4852000;29;20036;-95
2023/08/11 03:31:10;;;;;;;37.45;35.15;;;;;;;;;;4851422;29;20053;-93
2023/08/11 03:33:37;;;;;;;37.00;34.53;;;;;;;;;;4849332;29;20029;-95
2023/08/11 03:36:06;;;;;;;38.40;34.90;;;;;;;;;;4863987;29;20048;-96
2023/08/11 03:38:48;;;;;;;36.25;33.85;;;;;;;;;;4868162;29;20033;-96
2023/08/11 03:41:17;;;;;;;38.92;36.28;;;;;;;;;;4869861;29;20029;-96
2023/08/11 03:43:44;;;;;;;39.60;37.03;;;;;;;;;;4869332;29;20029;-95
2023/08/11 03:46:10;;;;;;;40.17;37.38;;;;;;;;;;4862891;29;20033;-93
2023/08/11 03:48:36;;;;;;;35.03;32.85;;;;;;;;;;4851111;29;20064;-95
2023/08/11 03:51:06;;;;;;;37.60;34.95;;;;;;;;;;4848985;29;20132;-96
2023/08/11 03:56:08;;;;;;;39.17;36.65;;;;;;;;;;4890916;29;20073;-95
2023/08/11 03:58:36;;;;;;;38.95;35.50;;;;;;;;;;4870933;29;20124;-93
2023/08/11 04:01:04;;;;;;;37.17;34.78;;;;;;;;;;4867155;29;20033;-92
2023/08/11 04:03:31;;;;;;;38.38;35.88;;;;;;;;;;4866336;29;20029;-96
2023/08/11 04:06:01;;;;;;;35.80;32.88;;;;;;;;;;4882793;29;20033;-94
2023/08/11 04:08:27;;;;;;;34.95;32.67;;;;;;;;;;4868863;29;20052;-96
2023/08/11 04:10:54;;;;;;;35.53;33.20;;;;;;;;;;4866018;29;20041;-95
2023/08/11 04:13:21;;;;;;;36.47;33.90;;;;;;;;;;4848649;29;20029;-96
2023/08/11 04:15:47;;;;;;;32.72;30.58;;;;;;;;;;4864307;29;20386;-96
2023/08/11 04:18:14;;;;;;;35.58;33.28;;;;;;;;;;4866523;29;20181;-96
2023/08/11 04:20:40;;;;;;;34.70;32.38;;;;;;;;;;4867059;29;20033;-96
2023/08/11 04:23:06;;;;;;;35.50;32.95;;;;;;;;;;4868424;29;20025;-95
2023/08/11 04:25:32;;;;;;;37.00;34.65;;;;;;;;;;4870040;29;20045;-95
2023/08/11 04:28:26;;;;;;;33.90;31.25;;;;;;;;;;4869456;29;20048;-95
2023/08/11 04:30:55;;;;;;;33.80;31.50;;;;;;;;;;4825385;29;20057;-96
2023/08/11 04:33:25;;;;;;;34.47;32.00;;;;;;;;;;4852788;29;20042;-94
2023/08/11 04:35:52;;;;;;;33.53;31.45;;;;;;;;;;4851261;29;20037;-94
2023/08/11 04:38:20;;;;;;;33.60;31.45;;;;;;;;;;4849648;29;20120;-95
2023/08/11 04:40:55;;;;;;;34.58;32.15;;;;;;;;;;4852563;29;20041;-95
2023/08/11 04:43:21;;;;;;;33.03;30.92;;;;;;;;;;4859432;29;20029;-96
2023/08/11 04:45:57;;;;;;;33.47;31.08;;;;;;;;;;4866427;29;20080;-94
2023/08/11 04:48:23;;;;;;;33.67;31.35;;;;;;;;;;4870924;29;20040;-93
2023/08/11 04:53:50;;;;;;;35.35;33.10;;;;;;;;;;4900724;24;20575;-96
2023/08/11 04:56:56;;;;;;;;;;;;;;;;;;;;;
2023/08/11 05:02:50;;;;;;;36.88;34.45;;;;;;;;;;4772753;30;20066;-95
2023/08/11 05:28:30;;;;;;;37.33;35.03;;;;;;;;;;4865118;29;20048;-95
2023/08/11 05:31:06;;;;;;;42.10;39.47;;;;;;;;;;4849511;29;20044;-93
2023/08/11 05:56:38;;;;;;;136.77;128.05;;;;;;;;;;4865412;29;20107;-95
2023/08/11 05:59:24;;;;;;;285.92;268.15;;;;;;;;;;4850383;29;20060;-96
2023/08/11 06:02:27;;;;;;;397.45;371.13;;;;;;;;;;4866153;29;20378;-96
2023/08/11 06:05:02;;;;;;;459.05;428.25;;;;;;;;;;4865946;29;20048;-96
2023/08/11 06:11:07;;;;;;;331.90;311.58;;;;;;;;;;4871890;29;20041;-95
2023/08/11 06:13:36;;;;;;;397.23;371.25;;;;;;;;;;4863705;29;20068;-93
2023/08/11 06:16:02;;;;;;;303.55;285.00;;;;;;;;;;4863678;29;20064;-93
2023/08/11 06:18:29;;;;;;;292.67;275.30;;;;;;;;;;4859867;29;20509;-94
2023/08/11 06:21:19;;;;;;;260.27;245.05;;;;;;;;;;4867246;29;20037;-95
2023/08/11 06:23:45;;;;;;;248.35;233.35;;;;;;;;;;4883343;29;20029;-94
2023/08/11 06:32:10;;;;;;;198.82;187.25;;;;;;;;;;4848711;29;20033;-94
2023/08/11 06:34:38;;;;;;;220.07;207.23;;;;;;;;;;4867284;29;20029;-95
2023/08/11 06:37:04;;;;;;;213.23;201.00;;;;;;;;;;4867423;29;20289;-93
2023/08/11 06:39:39;;;;;;;190.82;179.65;;;;;;;;;;4867414;29;20025;-95
2023/08/11 06:42:21;;;;;;;214.40;201.93;;;;;;;;;;4867490;29;20029;-95
2023/08/11 06:48:31;;;;;;;209.43;197.60;;;;;;;;;;4874027;29;20568;-96
2023/08/11 06:51:00;;;;;;;211.35;198.98;;;;;;;;;;4822490;29;20049;-96
2023/08/11 06:57:29;;;;;;;208.43;196.63;;;;;;;;;;4807810;29;20043;-96
2023/08/11 06:59:58;;;;;;;183.32;172.93;;;;;;;;;;4803924;29;20091;-95
2023/08/11 07:02:26;;;;;;;173.65;164.30;;;;;;;;;;4844469;29;20052;-95
2023/08/11 07:10:59;;;;;;;65.03;61.10;;;;;;;;;;4984866;24;20056;-95
2023/08/11 07:13:41;;;;;;;;;;;;;;;;;;;;;
2023/08/11 07:18:52;;;;;;;149.75;141.55;;;;;;;;;;5378713;23;20061;-92
2023/08/11 07:21:18;;;;;;;66.38;62.22;;;;;;;;;;4863480;29;20078;-91
2023/08/11 07:23:50;;;;;;;64.03;60.45;;;;;;;;;;4873249;23;20110;-91
2023/08/11 07:26:19;;;;;;;66.03;62.45;;;;;;;;;;4851460;29;20094;-90
2023/08/11 07:28:45;;;;;;;96.50;90.97;;;;;;;;;;4865119;29;20041;-93
2023/08/11 07:31:11;;;;;;;50.90;48.05;;;;;;;;;;4852159;29;20088;-92
2023/08/11 09:08:53;;;;;;;290.70;273.30;;;;;;;;;;3383413;23;22216;-93
2023/08/11 09:11:52;;;;;;;229.77;216.57;;;;;;;;;;4838497;29;20054;-92
2023/08/11 09:14:24;;;;;;;192.20;181.55;;;;;;;;;;4842825;29;20026;-94
2023/08/11 09:19:37;;;;;;;217.77;205.35;;;;;;;;;;4840284;29;20053;-94
2023/08/11 09:22:10;;;;;;;225.60;212.73;;;;;;;;;;4814394;29;20033;-93
2023/08/11 09:24:48;;;;;;;219.60;207.05;;;;;;;;;;4825175;29;20042;-96
2023/08/11 09:27:25;;;;;;;208.60;196.82;;;;;;;;;;4820963;29;20033;-91
2023/08/11 09:29:51;;;;;;;217.93;205.80;;;;;;;;;;4822885;29;20598;-93
2023/08/11 09:32:26;;;;;;;205.82;194.50;;;;;;;;;;4823386;29;20027;-94
2023/08/11 09:34:52;;;;;;;246.30;232.30;;;;;;;;;;4828274;29;20034;-92
2023/08/11 09:37:18;;;;;;;236.63;222.80;;;;;;;;;;4813694;29;20502;-92
2023/08/11 09:39:44;;;;;;;226.43;213.73;;;;;;;;;;4816539;29;20046;-92
2023/08/11 09:42:14;;;;;;;266.95;251.48;;;;;;;;;;4822047;29;20479;-93
2023/08/11 10:05:11;;;;;;;;;;;;;;;;;;4795646;29;20056;-96
2023/08/11 11:39:22;;;;;;;383.63;359.25;;;;;;;;;;5823368;23;20028;-94
2023/08/11 11:41:49;;;;;;;358.27;336.17;;;;;;;;;;4869803;29;20069;-93
2023/08/11 11:44:15;;;;;;;303.00;285.27;;;;;;;;;;4871514;29;20455;-95
2023/08/11 11:47:02;;;;;;;366.00;342.90;;;;;;;;;;4868004;29;20398;-95
2023/08/11 11:49:44;;;;;;;402.48;375.52;;;;;;;;;;4869444;23;20507;-95
2023/08/11 11:55:26;;;;;;;311.88;293.40;;;;;;;;;;4921546;24;20072;-94
2023/08/11 11:58:11;;;;;;;289.55;272.33;;;;;;;;;;4892199;29;20044;-95
2023/08/11 12:01:01;;;;;;;;;;;;;;;;;;4893734;29;20037;-95
2023/08/11 12:03:41;;;;;;;319.50;300.33;;;;;;;;;;4895806;29;19922;-95
2023/08/11 12:06:25;;;;;;;243.95;229.43;;;;;;;;;;4867287;29;20066;-95
2023/08/11 12:09:28;;;;;;;264.92;249.88;;;;;;;;;;4852280;29;20033;-96
2023/08/11 12:11:59;;;;;;;;;;;;;;;;;;4771235;30;20039;-95
2023/08/11 12:14:46;;;;;;;299.65;280.98;;;;;;;;;;4783931;29;19917;-96
2023/08/11 12:17:18;;;;;;;366.73;344.40;;;;;;;;;;4791415;30;20027;-96
2023/08/11 12:20:12;;;;;;;344.10;323.08;;;;;;;;;;4775562;30;21552;-95
2023/08/11 12:25:52;;;;;;;376.70;352.50;;;;;;;;;;4787592;30;20047;-96
2023/08/11 12:28:27;;;;;;;323.48;303.83;;;;;;;;;;4769656;30;20059;-95
2023/08/11 12:36:50;;;;;;;368.50;344.88;;;;;;;;;;5078291;24;20091;-94
2023/08/11 12:45:12;;;;;;;;;;;;;;;;;;4824607;29;20037;-92
2023/08/11 12:50:42;;;;;;;;;;;;;;;;;;;;;
2023/08/11 13:04:56;;;;;;;418.65;391.75;;;;;;;;;;4961403;23;20041;-93
2023/08/11 14:34:07;;;;;;;;;;;;;;;;;;;;;
2023/08/11 14:56:43;;;;;;;359.42;337.52;;;;;;;;;;5321059;23;20024;-96
2023/08/11 16:25:17;;;;;;;362.13;336.70;;;;;;;;;;5248457;23;20057;-93
2023/08/11 16:36:35;;;;;;;;;;;;;;;;;;;;;
2023/08/11 16:39:03;;;;;;;445.10;416.13;;;;;;;;;;4875805;29;20120;-92
2023/08/11 16:41:45;;;;;;;366.48;342.27;;;;;;;;;;4870308;29;20124;-94
2023/08/11 16:44:36;;;;;;;397.50;372.48;;;;;;;;;;4871438;29;20033;-94
2023/08/11 16:47:03;;;;;;;395.95;371.13;;;;;;;;;;4861229;29;20077;-92
2023/08/11 16:49:44;;;;;;;352.08;330.50;;;;;;;;;;4869843;29;20028;-92
2023/08/11 16:55:28;;;;;;;378.13;354.55;;;;;;;;;;5828223;23;20039;-95
2023/08/11 16:57:54;;;;;;;402.02;377.15;;;;;;;;;;4867204;29;20124;-95
2023/08/11 17:00:22;;;;;;;395.10;370.10;;;;;;;;;;4870088;29;20037;-96
2023/08/11 17:05:55;;;;;;;348.15;326.38;;;;;;;;;;4935205;23;20068;-93
2023/08/11 17:08:21;;;;;;;327.17;306.73;;;;;;;;;;5030149;23;21376;-91
2023/08/11 17:11:09;;;;;;;367.77;344.92;;;;;;;;;;4872809;29;20033;-91
2023/08/11 17:17:00;;;;;;;410.15;383.85;;;;;;;;;;4860455;29;20044;-91
2023/08/11 17:19:26;;;;;;;347.13;325.88;;;;;;;;;;5092797;23;20080;-92
2023/08/11 17:36:03;;;;;;;393.63;369.23;;;;;;;;;;5103896;23;19924;-93
2023/08/11 17:38:48;;;;;;;401.80;376.67;;;;;;;;;;4870558;29;20053;-92
2023/08/11 17:44:35;;;;;;;395.63;370.90;;;;;;;;;;4918770;24;20461;-92
2023/08/11 17:47:31;;;;;;;391.90;367.35;;;;;;;;;;5176513;23;20036;-94
2023/08/11 17:50:29;;;;;;;376.48;353.05;;;;;;;;;;4873251;29;20044;-93
2023/08/11 17:53:14;;;;;;;420.27;393.75;;;;;;;;;;4879640;29;20021;-95
2023/08/11 17:56:16;;;;;;;357.45;334.85;;;;;;;;;;4873999;29;20034;-94
2023/08/11 18:05:21;;;;;;;174.90;163.35;;;;;;;;;;4891994;29;20558;-90
2023/08/11 18:15:52;;;;;;;109.55;101.93;;;;;;;;;;5180473;23;20736;-91
2023/08/11 18:18:24;;;;;;;84.65;79.40;;;;;;;;;;5147900;23;20064;-90
2023/08/11 18:20:57;;;;;;;84.50;79.10;;;;;;;;;;4872520;29;20049;-91
2023/08/11 18:23:23;;;;;;;66.45;62.03;;;;;;;;;;4872153;29;20029;-90
2023/08/11 18:26:21;;;;;;;75.85;70.88;;;;;;;;;;5018940;23;20119;-96
2023/08/11 18:28:47;;;;;;;73.40;68.57;;;;;;;;;;4897041;23;20037;-93
2023/08/11 18:31:13;;;;;;;83.10;78.03;;;;;;;;;;4921691;23;20073;-93
2023/08/11 18:34:09;;;;;;;69.40;65.25;;;;;;;;;;4870640;29;20036;-96
2023/08/11 18:43:29;;;;;;;;;;;;;;;;;;;;;
2023/08/11 19:13:47;;;;;;;;;;;;;;;;;;;;;
2023/08/11 20:14:32;;;;;;;41.47;38.55;;;;;;;;;;4920819;23;20045;-95
2023/08/11 20:17:00;;;;;;;42.40;39.42;;;;;;;;;;4964566;24;20061;-96
2023/08/11 20:22:13;;;;;;;41.70;39.05;;;;;;;;;;5143643;24;20060;-95
2023/08/11 20:30:44;;;;;;;39.95;37.33;;;;;;;;;;5107161;24;20084;-95
2023/08/11 20:33:14;;;;;;;39.47;36.70;;;;;;;;;;4873455;29;20038;-95
2023/08/11 20:35:43;;;;;;;46.58;43.42;;;;;;;;;;4920093;24;20159;-94
2023/08/11 20:38:10;;;;;;;54.47;51.08;;;;;;;;;;4851218;29;20033;-95
2023/08/11 20:40:37;;;;;;;42.58;39.75;;;;;;;;;;4851637;29;20128;-96
2023/08/11 20:43:26;;;;;;;42.78;40.03;;;;;;;;;;4853760;29;20037;-95
2023/08/11 20:45:54;;;;;;;41.25;38.60;;;;;;;;;;4853364;29;20101;-96
2023/08/11 20:51:09;;;;;;;42.15;39.45;;;;;;;;;;4897187;24;20056;-96
2023/08/11 20:53:38;;;;;;;41.78;39.03;;;;;;;;;;4867995;29;20094;-96
2023/08/11 20:56:05;;;;;;;40.33;37.70;;;;;;;;;;4933277;24;20065;-93
2023/08/11 21:15:47;;;;;;;39.20;36.50;;;;;;;;;;4663014;23;20028;-94
